Time;durP1;ratioP1;P1;durP2;ratioP2;P2;SDS_P1;SDS_P2;PMS_P1;PMS_P2;Temp;Humidity;BMP_temperature;BMP_pressure;BME280_temperature;BME280_humidity;BME280_pressure;Samples;Min_cycle;Max_cycle;Signal;HPM_P1;HPM_P2
2022/02/16 00:00:24;;;;;;;5.80;5.10;;;6.00;43.10;;;;;;5093116;28;20193;-84
2022/02/16 00:02:50;;;;;;;5.10;4.60;;;6.10;43.00;;;;;;5092789;28;20188;-83
2022/02/16 00:05:17;;;;;;;4.33;4.13;;;6.10;42.90;;;;;;5095733;28;20166;-84
2022/02/16 00:07:44;;;;;;;4.50;4.10;;;6.00;43.80;;;;;;5092943;28;20174;-84
2022/02/16 00:10:15;;;;;;;4.77;4.37;;;6.00;43.50;;;;;;5092749;28;20680;-84
2022/02/16 00:12:41;;;;;;;4.97;4.57;;;6.00;43.80;;;;;;5091970;28;20404;-84
2022/02/16 00:15:09;;;;;;;4.70;4.40;;;6.00;44.20;;;;;;5091985;28;20419;-84
2022/02/16 00:17:35;;;;;;;4.53;4.23;;;6.00;43.60;;;;;;5094017;28;20767;-84
2022/02/16 00:20:01;;;;;;;4.97;4.73;;;6.00;43.70;;;;;;5092360;28;20998;-84
2022/02/16 00:22:26;;;;;;;7.10;4.20;;;6.00;43.80;;;;;;5091937;28;20421;-83
2022/02/16 00:24:52;;;;;;;4.97;4.57;;;6.00;44.10;;;;;;5091483;28;20174;-84
2022/02/16 00:27:18;;;;;;;4.57;4.27;;;6.00;44.20;;;;;;5091905;28;20227;-83
2022/02/16 00:29:43;;;;;;;5.73;4.97;;;5.90;44.20;;;;;;5092928;28;20212;-84
2022/02/16 00:32:09;;;;;;;4.93;4.57;;;5.90;44.80;;;;;;5091787;28;20406;-83
2022/02/16 00:34:36;;;;;;;4.80;4.40;;;5.90;44.80;;;;;;5092186;28;20177;-83
2022/02/16 00:37:01;;;;;;;4.80;4.40;;;6.00;45.00;;;;;;5091609;28;21212;-83
2022/02/16 00:39:27;;;;;;;4.37;4.07;;;6.00;44.60;;;;;;5092541;28;20451;-84
2022/02/16 00:41:53;;;;;;;6.63;4.27;;;6.10;44.50;;;;;;5092281;28;20262;-86
2022/02/16 00:44:18;;;;;;;4.80;4.50;;;6.10;44.30;;;;;;5092695;28;20181;-84
2022/02/16 00:46:44;;;;;;;4.50;4.30;;;6.10;44.60;;;;;;5092166;28;20177;-85
2022/02/16 00:49:09;;;;;;;4.63;4.33;;;6.20;44.40;;;;;;5092572;28;20188;-84
2022/02/16 00:51:35;;;;;;;4.43;4.13;;;6.20;44.40;;;;;;5092624;28;20170;-85
2022/02/16 00:54:01;;;;;;;4.70;4.50;;;6.20;44.40;;;;;;5092125;28;20193;-85
2022/02/16 00:56:27;;;;;;;4.73;4.43;;;6.30;44.00;;;;;;5091595;28;20419;-84
2022/02/16 00:58:52;;;;;;;4.10;3.90;;;6.20;44.00;;;;;;5091533;28;20216;-84
2022/02/16 01:01:18;;;;;;;4.90;4.50;;;6.30;44.50;;;;;;5091497;28;20201;-84
2022/02/16 01:03:43;;;;;;;4.90;4.60;;;6.30;43.80;;;;;;5091858;28;20173;-84
2022/02/16 01:06:09;;;;;;;4.83;4.53;;;6.30;44.40;;;;;;5091475;28;20173;-84
2022/02/16 01:08:35;;;;;;;4.40;4.20;;;6.30;44.30;;;;;;5092038;28;20215;-84
2022/02/16 01:11:00;;;;;;;4.27;4.03;;;6.40;44.60;;;;;;5092252;28;20634;-84
2022/02/16 01:13:26;;;;;;;4.80;4.60;;;6.50;43.70;;;;;;5091725;28;20182;-84
2022/02/16 01:15:52;;;;;;;5.17;4.83;;;6.50;44.20;;;;;;5091408;28;20427;-84
2022/02/16 01:18:18;;;;;;;5.00;4.70;;;6.50;43.80;;;;;;5091527;28;20200;-84
2022/02/16 01:20:44;;;;;;;4.70;4.40;;;6.50;44.00;;;;;;5091689;28;20447;-84
2022/02/16 01:23:10;;;;;;;4.10;3.90;;;6.50;43.90;;;;;;5091917;28;20208;-84
2022/02/16 01:25:36;;;;;;;4.87;4.57;;;6.50;44.00;;;;;;5091343;28;20180;-84
2022/02/16 01:28:01;;;;;;;5.00;4.70;;;6.50;43.70;;;;;;5092053;28;20404;-84
2022/02/16 01:30:27;;;;;;;4.50;4.20;;;6.60;44.00;;;;;;5091891;28;20465;-84
2022/02/16 01:32:53;;;;;;;5.90;4.27;;;6.60;43.90;;;;;;5091410;28;20173;-84
2022/02/16 01:35:19;;;;;;;4.10;3.90;;;6.50;43.20;;;;;;5091840;28;20506;-84
2022/02/16 01:37:45;;;;;;;5.93;4.10;;;6.50;44.00;;;;;;5091907;28;20510;-84
2022/02/16 01:40:12;;;;;;;4.47;4.07;;;6.50;44.00;;;;;;5091450;28;20231;-84
2022/02/16 01:42:38;;;;;;;4.40;4.20;;;6.50;44.50;;;;;;5092025;28;20451;-84
2022/02/16 01:45:05;;;;;;;4.47;4.27;;;6.50;44.80;;;;;;5091174;28;20407;-84
2022/02/16 01:47:30;;;;;;;4.47;4.27;;;6.50;44.50;;;;;;5091625;28;20497;-85
2022/02/16 01:49:56;;;;;;;4.60;4.30;;;6.50;45.00;;;;;;5092055;28;20423;-84
2022/02/16 01:52:22;;;;;;;3.93;3.73;;;6.60;44.90;;;;;;5091622;28;20174;-84
2022/02/16 01:54:47;;;;;;;4.23;4.03;;;6.60;45.30;;;;;;5091661;28;20625;-84
2022/02/16 01:57:14;;;;;;;5.27;4.77;;;6.60;45.20;;;;;;5091754;28;20174;-84
2022/02/16 01:59:39;;;;;;;5.30;3.83;;;6.60;45.40;;;;;;5092050;28;20621;-84
2022/02/16 02:02:07;;;;;;;4.80;4.43;;;6.70;45.40;;;;;;5092393;28;20411;-84
2022/02/16 02:04:33;;;;;;;4.77;4.30;;;6.60;45.10;;;;;;5092003;28;20174;-85
2022/02/16 02:06:58;;;;;;;3.77;3.57;;;6.70;44.80;;;;;;5092042;28;20426;-85
2022/02/16 02:09:24;;;;;;;4.30;4.00;;;6.70;45.40;;;;;;5091513;28;20424;-84
2022/02/16 02:11:50;;;;;;;4.00;3.80;;;6.70;45.90;;;;;;5091083;28;20264;-84
2022/02/16 02:14:16;;;;;;;4.00;3.80;;;6.70;45.40;;;;;;5074075;28;20606;-83
2022/02/16 02:16:41;;;;;;;4.10;3.90;;;6.70;45.70;;;;;;5091485;28;20215;-84
2022/02/16 02:19:09;;;;;;;4.47;4.10;;;6.70;45.50;;;;;;5095075;28;20897;-84
2022/02/16 02:21:36;;;;;;;4.23;4.03;;;6.70;45.10;;;;;;5094837;28;20546;-84
2022/02/16 02:24:02;;;;;;;4.70;4.27;;;6.70;45.60;;;;;;5094385;28;20468;-83
2022/02/16 02:26:28;;;;;;;4.60;4.30;;;6.70;45.50;;;;;;5094256;28;20420;-84
2022/02/16 02:28:54;;;;;;;4.50;4.30;;;6.70;44.60;;;;;;5094509;28;20816;-84
2022/02/16 02:31:31;;;;;;;4.63;4.23;;;6.70;44.80;;;;;;5094382;28;20189;-84
2022/02/16 02:33:58;;;;;;;4.13;3.90;;;6.70;44.80;;;;;;5094435;28;20443;-84
2022/02/16 02:36:24;;;;;;;4.27;4.07;;;6.70;44.60;;;;;;5094096;28;20420;-85
2022/02/16 02:38:50;;;;;;;4.30;4.10;;;6.70;44.80;;;;;;5094715;28;20790;-83
2022/02/16 02:41:16;;;;;;;3.80;3.60;;;6.60;44.70;;;;;;5094943;28;20461;-84
2022/02/16 02:43:45;;;;;;;4.27;4.07;;;6.60;45.00;;;;;;5094731;28;20180;-84
2022/02/16 02:46:11;;;;;;;4.27;3.97;;;6.70;44.80;;;;;;5094155;28;20787;-84
2022/02/16 02:48:37;;;;;;;4.10;3.90;;;6.60;44.70;;;;;;5093219;28;20766;-83
2022/02/16 02:51:02;;;;;;;3.30;3.20;;;6.70;45.10;;;;;;5094765;28;20419;-84
2022/02/16 02:53:28;;;;;;;4.77;4.37;;;6.70;45.20;;;;;;5095096;28;20626;-84
2022/02/16 02:55:54;;;;;;;4.10;3.90;;;6.70;45.20;;;;;;5094784;28;20538;-83
2022/02/16 02:58:20;;;;;;;4.03;3.77;;;6.70;45.30;;;;;;5094091;28;20205;-83
2022/02/16 03:00:46;;;;;;;3.50;3.30;;;6.70;45.50;;;;;;5094290;28;20470;-83
2022/02/16 03:03:12;;;;;;;3.93;3.73;;;6.80;45.40;;;;;;5094178;28;20177;-84
2022/02/16 03:05:37;;;;;;;3.97;3.63;;;6.70;45.10;;;;;;5094065;28;20423;-84
2022/02/16 03:08:04;;;;;;;3.60;3.50;;;6.80;45.20;;;;;;5093525;28;20227;-84
2022/02/16 03:10:29;;;;;;;4.33;4.13;;;6.80;44.90;;;;;;5111700;28;20209;-84
2022/02/16 03:12:55;;;;;;;4.20;4.00;;;6.70;45.60;;;;;;5093348;28;20464;-84
2022/02/16 03:15:21;;;;;;;3.87;3.67;;;6.70;45.30;;;;;;5094873;28;20474;-85
2022/02/16 03:17:47;;;;;;;4.30;4.10;;;6.70;45.50;;;;;;5093599;28;20533;-84
2022/02/16 03:20:13;;;;;;;4.23;3.93;;;6.80;45.20;;;;;;5093775;28;20209;-85
2022/02/16 03:22:39;;;;;;;3.70;3.50;;;6.70;44.90;;;;;;5094459;28;20178;-84
2022/02/16 03:25:10;;;;;;;4.40;4.20;;;6.70;44.80;;;;;;5093599;28;20799;-85
2022/02/16 03:27:37;;;;;;;4.27;3.87;;;6.70;45.40;;;;;;5095131;28;20419;-85
2022/02/16 03:30:06;;;;;;;3.67;3.57;;;6.50;45.70;;;;;;5092943;28;20424;-85
2022/02/16 03:32:32;;;;;;;4.30;3.97;;;6.50;45.70;;;;;;5093713;28;20462;-84
2022/02/16 03:34:57;;;;;;;5.33;4.47;;;6.60;45.60;;;;;;5092827;28;20424;-84
2022/02/16 03:37:23;;;;;;;3.97;3.77;;;6.60;45.70;;;;;;5093179;28;20301;-83
2022/02/16 03:39:49;;;;;;;4.53;4.33;;;6.60;45.40;;;;;;5111509;28;20209;-84
2022/02/16 03:42:14;;;;;;;3.77;3.60;;;6.60;45.90;;;;;;5093359;28;20209;-83
2022/02/16 03:44:41;;;;;;;4.07;3.87;;;6.60;45.70;;;;;;5094552;28;20174;-85
2022/02/16 03:47:07;;;;;;;4.40;4.00;;;6.60;45.30;;;;;;5093079;28;20170;-84
2022/02/16 03:49:32;;;;;;;4.63;4.30;;;6.60;45.20;;;;;;5093239;28;20476;-84
2022/02/16 03:51:58;;;;;;;4.80;4.60;;;6.60;45.50;;;;;;5093561;28;20170;-84
2022/02/16 03:54:24;;;;;;;4.43;4.13;;;6.60;45.10;;;;;;5093990;28;20174;-84
2022/02/16 03:56:51;;;;;;;4.17;3.97;;;6.60;44.70;;;;;;5092752;28;20965;-85
2022/02/16 03:59:17;;;;;;;4.70;4.33;;;6.70;45.30;;;;;;5093082;28;20197;-84
2022/02/16 04:01:42;;;;;;;4.17;3.87;;;6.50;45.20;;;;;;5093155;28;20524;-84
2022/02/16 04:04:08;;;;;;;4.50;4.20;;;6.60;45.50;;;;;;5093377;28;20491;-84
2022/02/16 04:06:34;;;;;;;4.20;4.00;;;6.70;45.00;;;;;;5092721;28;20257;-84
2022/02/16 04:08:59;;;;;;;4.03;3.83;;;6.60;45.30;;;;;;5092643;28;20237;-83
2022/02/16 04:11:27;;;;;;;3.60;3.40;;;6.70;45.70;;;;;;5092513;28;20178;-84
2022/02/16 04:13:56;;;;;;;5.13;4.00;;;6.70;44.70;;;;;;5094105;28;20182;-84
2022/02/16 04:16:25;;;;;;;4.13;4.03;;;6.80;44.60;;;;;;5093379;28;20469;-82
2022/02/16 04:18:50;;;;;;;4.13;4.03;;;6.80;44.80;;;;;;5092598;27;20423;-87
2022/02/16 04:21:16;;;;;;;4.03;3.93;;;6.80;44.80;;;;;;5100351;28;20460;-90
2022/02/16 04:23:43;;;;;;;4.20;4.00;;;6.80;44.80;;;;;;5094696;28;20174;-90
2022/02/16 04:26:10;;;;;;;4.57;4.30;;;6.90;44.80;;;;;;5094416;28;20432;-90
2022/02/16 04:28:36;;;;;;;4.90;4.60;;;6.90;44.80;;;;;;5093629;28;20772;-88
2022/02/16 04:31:02;;;;;;;4.30;4.10;;;6.90;45.00;;;;;;5093983;28;20443;-88
2022/02/16 04:33:28;;;;;;;3.97;3.83;;;6.90;45.70;;;;;;5092923;28;20934;-90
2022/02/16 04:35:54;;;;;;;4.23;4.00;;;6.80;44.80;;;;;;5093510;28;20630;-88
2022/02/16 04:38:20;;;;;;;3.80;3.70;;;6.90;45.10;;;;;;5111897;28;20732;-89
2022/02/16 04:40:46;;;;;;;4.30;4.20;;;6.80;44.90;;;;;;5092957;28;20601;-83
2022/02/16 04:43:12;;;;;;;4.07;3.93;;;6.80;45.70;;;;;;5094285;28;20234;-84
2022/02/16 04:45:37;;;;;;;3.80;3.70;;;6.80;45.70;;;;;;5094788;28;20170;-83
2022/02/16 04:48:04;;;;;;;4.27;3.97;;;6.90;45.10;;;;;;5095573;28;20259;-84
2022/02/16 04:50:30;;;;;;;3.93;3.83;;;6.90;45.10;;;;;;5095721;28;20546;-84
2022/02/16 04:52:56;;;;;;;4.13;4.03;;;7.00;45.70;;;;;;5095409;28;20426;-84
2022/02/16 04:55:23;;;;;;;4.20;4.10;;;6.90;46.00;;;;;;5096345;28;20174;-84
2022/02/16 04:57:50;;;;;;;3.83;3.73;;;7.00;45.70;;;;;;5095979;28;20243;-84
2022/02/16 05:00:16;;;;;;;4.13;4.00;;;7.00;45.50;;;;;;5095529;28;20478;-85
2022/02/16 05:02:42;;;;;;;3.93;3.83;;;7.10;45.60;;;;;;5096049;28;20404;-83
2022/02/16 05:05:08;;;;;;;4.73;4.43;;;6.90;45.70;;;;;;5095483;28;20423;-82
2022/02/16 05:07:34;;;;;;;3.77;3.60;;;7.00;45.70;;;;;;5095383;28;20178;-83
2022/02/16 05:10:00;;;;;;;4.03;3.83;;;7.00;46.00;;;;;;5095152;28;20424;-83
2022/02/16 05:12:26;;;;;;;3.80;3.70;;;7.00;46.10;;;;;;5095217;28;20423;-81
2022/02/16 05:14:51;;;;;;;4.13;3.83;;;7.00;46.10;;;;;;5095679;28;20178;-84
2022/02/16 05:17:17;;;;;;;4.40;4.30;;;7.00;46.20;;;;;;5094933;28;20190;-86
2022/02/16 05:19:43;;;;;;;4.50;4.30;;;7.00;46.00;;;;;;5095283;28;20198;-83
2022/02/16 05:22:09;;;;;;;4.57;4.17;;;7.10;46.50;;;;;;5094913;28;20178;-84
2022/02/16 05:24:35;;;;;;;4.60;4.30;;;7.00;46.40;;;;;;5095248;28;20230;-82
2022/02/16 05:27:01;;;;;;;4.60;4.40;;;7.00;47.60;;;;;;5094919;28;20564;-82
2022/02/16 05:29:27;;;;;;;4.00;3.90;;;6.90;47.20;;;;;;5095469;28;20924;-83
2022/02/16 05:31:53;;;;;;;4.50;4.27;;;7.00;47.50;;;;;;5094769;28;20460;-80
2022/02/16 05:34:18;;;;;;;4.67;4.47;;;7.00;47.60;;;;;;5094354;28;20506;-80
2022/02/16 05:36:44;;;;;;;3.90;3.80;;;7.00;47.40;;;;;;5095253;28;20182;-81
2022/02/16 05:39:10;;;;;;;4.07;3.87;;;7.00;47.40;;;;;;5094834;28;20235;-79
2022/02/16 05:41:36;;;;;;;3.83;3.73;;;7.10;47.40;;;;;;5094614;28;20459;-80
2022/02/16 05:44:02;;;;;;;4.37;4.20;;;7.00;47.20;;;;;;5094523;28;20556;-80
2022/02/16 05:46:28;;;;;;;4.40;4.30;;;7.00;47.40;;;;;;5094566;28;20178;-79
2022/02/16 05:48:53;;;;;;;4.60;4.40;;;7.10;47.50;;;;;;5094486;28;20418;-79
2022/02/16 05:51:19;;;;;;;4.20;4.00;;;7.10;47.60;;;;;;5094006;28;20276;-80
2022/02/16 05:53:46;;;;;;;4.13;4.03;;;7.10;47.90;;;;;;5097085;28;20186;-82
2022/02/16 05:56:11;;;;;;;4.50;4.40;;;7.00;48.20;;;;;;5098578;28;20192;-79
2022/02/16 05:58:37;;;;;;;5.10;4.67;;;7.00;48.50;;;;;;5098420;28;20403;-79
2022/02/16 06:01:03;;;;;;;4.10;4.00;;;7.00;48.20;;;;;;5098356;28;20462;-82
2022/02/16 06:03:29;;;;;;;4.37;4.20;;;7.00;48.10;;;;;;5098181;28;20183;-81
2022/02/16 06:05:55;;;;;;;4.90;4.70;;;7.10;48.20;;;;;;5097517;28;20174;-80
2022/02/16 06:08:20;;;;;;;4.57;4.37;;;7.00;48.20;;;;;;5087290;28;20443;-81
2022/02/16 06:10:46;;;;;;;4.30;4.20;;;7.00;48.50;;;;;;5077905;28;20416;-81
2022/02/16 06:13:13;;;;;;;4.23;4.13;;;7.10;48.80;;;;;;5077705;28;20178;-81
2022/02/16 06:15:39;;;;;;;4.30;4.10;;;7.10;48.60;;;;;;5077768;28;20658;-81
2022/02/16 06:18:05;;;;;;;4.57;4.40;;;7.10;48.90;;;;;;5095740;28;20498;-81
2022/02/16 06:20:31;;;;;;;4.50;4.30;;;7.10;49.30;;;;;;5077577;28;20456;-83
2022/02/16 06:23:06;;;;;;;4.03;3.93;;;7.10;49.10;;;;;;5077768;28;20181;-81
2022/02/16 06:25:31;;;;;;;4.33;4.23;;;7.10;48.90;;;;;;5096481;28;20219;-81
2022/02/16 06:27:57;;;;;;;4.70;4.43;;;7.10;49.00;;;;;;5098107;28;20776;-81
2022/02/16 06:30:26;;;;;;;4.80;4.70;;;7.10;49.10;;;;;;5097928;28;20207;-81
2022/02/16 06:32:54;;;;;;;4.40;4.30;;;7.10;50.00;;;;;;5097773;28;20213;-82
2022/02/16 06:35:19;;;;;;;4.50;4.40;;;7.10;50.70;;;;;;5097921;28;20935;-81
2022/02/16 06:37:45;;;;;;;4.53;4.33;;;7.20;49.00;;;;;;5097715;28;20411;-81
2022/02/16 06:40:11;;;;;;;5.10;4.77;;;7.20;49.20;;;;;;5097718;28;20209;-81
2022/02/16 06:42:38;;;;;;;4.50;4.20;;;7.20;49.30;;;;;;5097549;28;20911;-81
2022/02/16 06:45:06;;;;;;;4.70;4.40;;;7.20;49.40;;;;;;5097726;28;20420;-81
2022/02/16 06:47:31;;;;;;;4.80;4.60;;;7.10;49.60;;;;;;5097559;28;20408;-81
2022/02/16 06:50:21;;;;;;;4.53;4.33;;;7.20;49.90;;;;;;5097526;28;20753;-81
2022/02/16 06:52:46;;;;;;;4.30;4.20;;;7.10;50.00;;;;;;5097084;28;20178;-80
2022/02/16 06:55:15;;;;;;;4.83;4.53;;;7.20;49.80;;;;;;5096299;28;20735;-80
2022/02/16 06:57:42;;;;;;;4.00;3.90;;;7.20;50.00;;;;;;5096813;28;20181;-82
2022/02/16 07:00:08;;;;;;;4.60;4.40;;;7.30;49.50;;;;;;5096556;28;21000;-80
2022/02/16 07:02:44;;;;;;;3.80;3.70;;;7.20;49.50;;;;;;5096069;28;20420;-81
2022/02/16 07:05:10;;;;;;;3.80;3.67;;;7.20;50.00;;;;;;5096498;28;20437;-81
2022/02/16 07:07:36;;;;;;;3.23;3.13;;;7.30;49.70;;;;;;5095807;28;20412;-81
2022/02/16 07:10:01;;;;;;;3.97;3.80;;;7.30;49.70;;;;;;5096315;28;20188;-81
2022/02/16 07:12:27;;;;;;;4.10;3.90;;;7.20;51.00;;;;;;5095886;28;20648;-81
2022/02/16 07:14:56;;;;;;;3.70;3.60;;;7.20;50.80;;;;;;5096707;28;20426;-82
2022/02/16 07:17:22;;;;;;;4.57;4.27;;;7.20;51.40;;;;;;5095979;28;20602;-81
2022/02/16 07:19:48;;;;;;;3.93;3.83;;;7.20;51.80;;;;;;5096233;28;20913;-81
2022/02/16 07:22:14;;;;;;;7.33;4.07;;;7.20;51.70;;;;;;5095891;28;20503;-81
2022/02/16 07:24:40;;;;;;;4.50;4.30;;;7.10;52.60;;;;;;5096261;28;20226;-81
2022/02/16 07:27:05;;;;;;;4.10;3.90;;;7.20;53.10;;;;;;5096288;28;20916;-81
2022/02/16 07:29:31;;;;;;;3.93;3.83;;;7.20;53.60;;;;;;5095776;28;20667;-81
2022/02/16 07:31:57;;;;;;;4.30;4.10;;;7.20;53.40;;;;;;5095892;28;20181;-82
2022/02/16 07:34:27;;;;;;;5.03;4.83;;;7.30;53.90;;;;;;5095259;28;20431;-82
2022/02/16 07:36:53;;;;;;;4.33;4.10;;;7.30;53.60;;;;;;5095780;28;20177;-81
2022/02/16 07:39:19;;;;;;;4.00;3.90;;;7.20;54.80;;;;;;5095360;28;20420;-82
2022/02/16 07:41:45;;;;;;;4.63;4.53;;;7.20;55.10;;;;;;5096073;28;20851;-82
2022/02/16 07:44:10;;;;;;;4.40;4.20;;;7.00;55.40;;;;;;5091685;28;20178;-82
2022/02/16 07:46:36;;;;;;;5.10;4.60;;;7.10;55.90;;;;;;5089986;28;20527;-82
2022/02/16 07:49:02;;;;;;;3.87;3.77;;;7.00;56.40;;;;;;5080163;28;20446;-82
2022/02/16 07:51:27;;;;;;;4.50;4.30;;;7.10;56.50;;;;;;5074940;28;20265;-82
2022/02/16 07:53:54;;;;;;;4.37;4.27;;;7.00;57.10;;;;;;5074586;28;20265;-82
2022/02/16 07:56:20;;;;;;;4.63;4.43;;;7.00;57.90;;;;;;5082396;28;20186;-82
2022/02/16 07:58:46;;;;;;;4.50;4.30;;;7.10;57.70;;;;;;5075023;28;20429;-82
2022/02/16 08:01:12;;;;;;;4.40;4.17;;;7.00;57.80;;;;;;5085775;28;20550;-81
2022/02/16 08:03:37;;;;;;;4.40;4.30;;;6.90;59.30;;;;;;5094864;28;20206;-81
2022/02/16 08:06:03;;;;;;;4.83;4.60;;;6.90;59.30;;;;;;5094982;28;20208;-82
2022/02/16 08:08:31;;;;;;;4.27;4.17;;;6.90;59.00;;;;;;5094541;28;20231;-82
2022/02/16 08:10:57;;;;;;;4.63;4.50;;;6.90;60.20;;;;;;5094743;28;20419;-83
2022/02/16 08:13:23;;;;;;;5.13;4.73;;;6.80;60.80;;;;;;5094283;28;20434;-81
2022/02/16 08:15:48;;;;;;;4.30;4.20;;;6.90;61.10;;;;;;5094414;28;20419;-82
2022/02/16 08:18:14;;;;;;;4.30;4.20;;;6.90;61.80;;;;;;5094514;28;20772;-82
2022/02/16 08:20:43;;;;;;;4.97;4.73;;;6.90;62.20;;;;;;5094721;28;20234;-83
2022/02/16 08:23:12;;;;;;;4.37;4.20;;;6.90;62.60;;;;;;5094360;28;20279;-80
2022/02/16 08:25:39;;;;;;;4.90;4.70;;;6.90;62.10;;;;;;5094638;28;20951;-83
2022/02/16 08:28:06;;;;;;;5.40;5.20;;;6.90;62.60;;;;;;5094387;28;20895;-82
2022/02/16 08:30:32;;;;;;;5.20;4.90;;;6.90;64.00;;;;;;5094400;28;20451;-83
2022/02/16 08:32:58;;;;;;;5.33;5.10;;;6.90;64.30;;;;;;5094534;28;20473;-83
2022/02/16 08:35:26;;;;;;;4.80;4.70;;;6.90;64.40;;;;;;5094325;28;20427;-83
2022/02/16 08:37:51;;;;;;;4.30;4.20;;;6.90;63.30;;;;;;5094571;28;20449;-83
2022/02/16 08:40:17;;;;;;;4.63;4.53;;;6.90;64.80;;;;;;5092488;28;20451;-83
2022/02/16 08:42:43;;;;;;;5.17;4.97;;;6.90;64.50;;;;;;5094249;28;20495;-82
2022/02/16 08:45:09;;;;;;;4.73;4.43;;;7.00;65.30;;;;;;5077132;28;20182;-83
2022/02/16 08:47:35;;;;;;;4.63;4.43;;;7.00;66.10;;;;;;5074126;28;20181;-81
2022/02/16 08:50:00;;;;;;;4.33;4.23;;;6.90;65.20;;;;;;5074168;28;20424;-82
2022/02/16 08:52:26;;;;;;;5.00;4.60;;;7.00;65.80;;;;;;5073665;28;20538;-81
2022/02/16 08:54:52;;;;;;;4.10;3.90;;;7.00;66.40;;;;;;5074003;28;20174;-81
2022/02/16 08:57:19;;;;;;;4.47;4.20;;;7.00;66.80;;;;;;5073701;28;20207;-82
2022/02/16 08:59:45;;;;;;;4.20;4.00;;;7.00;67.30;;;;;;5074105;28;20175;-81
2022/02/16 09:02:10;;;;;;;4.30;4.20;;;7.00;66.70;;;;;;5073719;28;20412;-81
2022/02/16 09:04:36;;;;;;;3.80;3.70;;;7.00;66.80;;;;;;5074114;28;20646;-81
2022/02/16 09:09:46;;;;;;;4.10;3.90;;;7.00;66.10;;;;;;5092525;28;20189;-81
2022/02/16 09:12:12;;;;;;;5.00;4.63;;;7.00;67.80;;;;;;5073739;28;20416;-81
2022/02/16 09:14:38;;;;;;;7.20;4.47;;;6.90;67.00;;;;;;5073854;28;20181;-81
2022/02/16 09:17:04;;;;;;;4.20;4.00;;;6.90;67.70;;;;;;5073893;28;20201;-81
2022/02/16 09:19:32;;;;;;;4.60;4.40;;;6.90;68.00;;;;;;5079374;28;20512;-81
2022/02/16 09:21:58;;;;;;;4.00;3.90;;;6.90;68.10;;;;;;5094153;28;20423;-81
2022/02/16 09:24:24;;;;;;;4.10;3.90;;;7.00;68.50;;;;;;5112281;28;20403;-81
2022/02/16 09:26:52;;;;;;;4.00;3.90;;;7.00;69.20;;;;;;5094656;28;20418;-81
2022/02/16 09:29:18;;;;;;;4.03;3.83;;;7.00;69.70;;;;;;5098381;28;20177;-81
2022/02/16 09:31:44;;;;;;;3.70;3.60;;;7.00;69.40;;;;;;5098595;28;20419;-83
2022/02/16 09:34:10;;;;;;;3.87;3.70;;;6.90;69.40;;;;;;5114339;28;20419;-83
2022/02/16 09:36:36;;;;;;;3.93;3.83;;;6.90;70.00;;;;;;5115411;28;20419;-83
2022/02/16 09:39:03;;;;;;;5.03;3.80;;;7.00;69.50;;;;;;5115550;28;20204;-83
2022/02/16 09:41:30;;;;;;;3.60;3.50;;;7.00;69.50;;;;;;5114966;28;20674;-83
2022/02/16 09:43:58;;;;;;;3.93;3.83;;;7.00;68.30;;;;;;5115102;28;20781;-83
2022/02/16 09:46:24;;;;;;;3.90;3.80;;;7.00;68.50;;;;;;5115277;28;20756;-82
2022/02/16 09:48:50;;;;;;;3.83;3.73;;;7.10;68.40;;;;;;5115284;28;20866;-82
2022/02/16 09:51:17;;;;;;;3.70;3.60;;;7.20;67.30;;;;;;5114737;28;20464;-83
2022/02/16 09:53:42;;;;;;;3.80;3.70;;;7.20;68.40;;;;;;5115071;28;20514;-83
2022/02/16 09:56:08;;;;;;;3.57;3.47;;;7.20;67.10;;;;;;5114800;28;20836;-82
2022/02/16 09:58:34;;;;;;;4.20;4.10;;;7.30;66.20;;;;;;5114726;28;20201;-83
2022/02/16 10:01:12;;;;;;;4.30;4.10;;;7.30;65.80;;;;;;5114694;28;21048;-83
2022/02/16 10:03:38;;;;;;;4.23;4.03;;;7.30;65.90;;;;;;5114590;28;20177;-84
2022/02/16 10:06:04;;;;;;;3.90;3.80;;;7.40;65.90;;;;;;5114980;28;20502;-83
2022/02/16 10:08:44;;;;;;;3.50;3.40;;;7.40;65.10;;;;;;5114296;28;20519;-83
2022/02/16 10:11:11;;;;;;;3.30;3.20;;;7.50;64.80;;;;;;5114928;28;20184;-84
2022/02/16 10:13:37;;;;;;;3.90;3.80;;;7.50;64.80;;;;;;5115713;28;20449;-83
2022/02/16 10:16:03;;;;;;;3.60;3.50;;;7.60;63.00;;;;;;5114786;28;20407;-83
2022/02/16 10:18:29;;;;;;;4.17;4.07;;;7.60;64.30;;;;;;5114572;28;20839;-83
2022/02/16 10:21:09;;;;;;;3.70;3.60;;;7.60;63.60;;;;;;5114644;28;20463;-84
2022/02/16 10:23:43;;;;;;;3.33;3.23;;;7.70;63.40;;;;;;5114430;28;20218;-84
2022/02/16 10:26:09;;;;;;;3.63;3.53;;;7.80;62.50;;;;;;5114068;28;20422;-83
2022/02/16 10:28:43;;;;;;;4.60;4.37;;;7.80;62.60;;;;;;5114211;28;20422;-85
2022/02/16 10:31:10;;;;;;;3.87;3.67;;;7.80;62.40;;;;;;5114392;28;20427;-83
2022/02/16 10:33:51;;;;;;;3.50;3.40;;;7.80;62.60;;;;;;5114034;28;20431;-83
2022/02/16 10:36:27;;;;;;;3.40;3.30;;;7.90;62.50;;;;;;5113891;28;20451;-83
2022/02/16 10:39:06;;;;;;;3.87;3.73;;;7.90;61.90;;;;;;5113840;28;20415;-83
2022/02/16 10:41:42;;;;;;;3.50;3.40;;;8.10;61.30;;;;;;5114086;28;20469;-83
2022/02/16 10:44:23;;;;;;;3.40;3.30;;;8.10;60.30;;;;;;5114249;28;20425;-83
2022/02/16 10:46:59;;;;;;;3.90;3.80;;;8.10;61.10;;;;;;5113528;28;20407;-83
2022/02/16 10:49:26;;;;;;;3.57;3.47;;;8.10;61.70;;;;;;5113465;28;20750;-83
2022/02/16 10:52:09;;;;;;;3.40;3.30;;;8.20;61.10;;;;;;5113287;28;20798;-84
2022/02/16 10:54:36;;;;;;;3.60;3.50;;;8.30;60.80;;;;;;5113530;28;20419;-82
2022/02/16 10:57:03;;;;;;;3.70;3.60;;;8.30;61.10;;;;;;5113366;28;20419;-84
2022/02/16 10:59:28;;;;;;;3.90;3.80;;;8.40;60.60;;;;;;5098125;28;20416;-84
2022/02/16 11:01:56;;;;;;;4.00;3.90;;;8.50;60.70;;;;;;5096040;28;20838;-85
2022/02/16 11:04:22;;;;;;;3.80;3.70;;;8.60;62.20;;;;;;5102286;28;20364;-84
2022/02/16 11:06:49;;;;;;;4.17;4.07;;;8.70;61.10;;;;;;5109622;28;20420;-84
2022/02/16 11:09:20;;;;;;;4.10;3.90;;;8.80;60.20;;;;;;5096484;28;20420;-85
2022/02/16 11:11:51;;;;;;;4.43;4.23;;;8.90;60.50;;;;;;5096316;28;20891;-84
2022/02/16 11:14:21;;;;;;;4.77;4.57;;;8.90;61.00;;;;;;5095613;28;20423;-84
2022/02/16 11:16:48;;;;;;;4.20;4.00;;;9.00;61.10;;;;;;5106834;28;20444;-84
2022/02/16 11:19:32;;;;;;;3.60;3.50;;;9.00;61.10;;;;;;5112909;28;20504;-84
2022/02/16 11:22:14;;;;;;;3.83;3.73;;;9.20;60.70;;;;;;5096081;28;20439;-84
2022/02/16 11:24:45;;;;;;;4.17;4.07;;;9.30;59.20;;;;;;5075812;28;20892;-83
2022/02/16 11:27:29;;;;;;;3.70;3.60;;;9.50;58.50;;;;;;5075541;28;20462;-83
2022/02/16 11:30:10;;;;;;;3.93;3.63;;;9.50;59.10;;;;;;5075809;28;20508;-84
2022/02/16 11:32:41;;;;;;;3.90;3.80;;;9.50;58.70;;;;;;5076252;28;20405;-87
2022/02/16 11:35:12;;;;;;;4.10;3.90;;;9.60;59.60;;;;;;5075951;28;20973;-86
2022/02/16 11:37:39;;;;;;;3.80;3.70;;;9.70;58.60;;;;;;5075631;28;20416;-86
2022/02/16 11:40:10;;;;;;;4.00;3.90;;;9.80;59.00;;;;;;5075837;28;20448;-86
2022/02/16 11:43:10;;;;;;;4.20;4.10;;;9.80;57.80;;;;;;5075850;28;20567;-84
2022/02/16 11:45:41;;;;;;;4.20;4.03;;;9.90;58.00;;;;;;5076087;28;20928;-83
2022/02/16 11:48:08;;;;;;;4.03;3.93;;;9.90;57.40;;;;;;5075814;28;20404;-82
2022/02/16 11:50:40;;;;;;;3.50;3.40;;;9.90;58.30;;;;;;5075115;28;20493;-81
2022/02/16 11:53:09;;;;;;;4.03;3.93;;;10.00;56.90;;;;;;5076257;28;20412;-82
2022/02/16 11:55:42;;;;;;;3.80;3.70;;;10.10;57.90;;;;;;5076150;28;20451;-83
2022/02/16 11:58:13;;;;;;;4.00;3.90;;;10.10;56.10;;;;;;5075871;28;20450;-84
2022/02/16 12:01:00;;;;;;;3.57;3.47;;;10.10;56.50;;;;;;5075757;28;20539;-82
2022/02/16 12:03:51;;;;;;;4.30;4.20;;;10.10;56.40;;;;;;5075191;28;20911;-82
2022/02/16 12:06:21;;;;;;;3.80;3.70;;;10.10;56.30;;;;;;5075017;28;20416;-82
2022/02/16 12:08:54;;;;;;;4.00;3.90;;;10.20;55.70;;;;;;5075122;28;20427;-82
2022/02/16 12:11:29;;;;;;;3.87;3.70;;;10.20;56.50;;;;;;5074814;28;20421;-82
2022/02/16 12:14:14;;;;;;;4.30;4.20;;;10.20;58.20;;;;;;5074818;28;20420;-81
2022/02/16 12:16:45;;;;;;;3.80;3.70;;;10.30;58.90;;;;;;5074366;28;20460;-81
2022/02/16 12:19:15;;;;;;;4.27;4.17;;;10.30;60.00;;;;;;5074518;28;20982;-81
2022/02/16 12:21:55;;;;;;;3.90;3.80;;;10.30;60.40;;;;;;5074116;28;20484;-81
2022/02/16 12:24:26;;;;;;;3.90;3.80;;;10.30;59.70;;;;;;5075161;28;20935;-81
2022/02/16 12:26:59;;;;;;;3.87;3.77;;;10.40;60.40;;;;;;5075167;28;20500;-81
2022/02/16 12:29:31;;;;;;;3.87;3.77;;;10.40;59.10;;;;;;5075256;28;20503;-81
2022/02/16 12:32:00;;;;;;;3.80;3.70;;;10.30;60.60;;;;;;5074799;28;20413;-81
2022/02/16 12:34:28;;;;;;;3.70;3.60;;;10.30;61.30;;;;;;5074721;28;20816;-80
2022/02/16 12:37:00;;;;;;;4.10;4.00;;;10.30;61.60;;;;;;5074975;28;20409;-81
2022/02/16 12:39:27;;;;;;;4.00;3.90;;;10.30;62.30;;;;;;5074487;28;20917;-82
2022/02/16 12:41:53;;;;;;;4.07;3.97;;;10.30;62.10;;;;;;5073987;28;20809;-80
2022/02/16 12:44:33;;;;;;;3.70;3.60;;;10.30;63.80;;;;;;5073851;28;20466;-81
2022/02/16 12:47:00;;;;;;;3.83;3.73;;;10.30;62.10;;;;;;5092543;28;20926;-81
2022/02/16 12:49:28;;;;;;;3.73;3.63;;;10.40;61.40;;;;;;5093738;28;20416;-81
2022/02/16 12:51:56;;;;;;;3.80;3.70;;;10.40;60.50;;;;;;5094273;28;20964;-81
2022/02/16 12:54:27;;;;;;;4.07;3.67;;;10.40;61.40;;;;;;5093948;28;20416;-81
2022/02/16 12:56:56;;;;;;;3.80;3.70;;;10.40;60.00;;;;;;5094444;28;20426;-82
2022/02/16 12:59:26;;;;;;;3.53;3.43;;;10.40;59.90;;;;;;5093886;28;20416;-83